sensor_id;sensor_type;location;lat;lon;timestamp;pressure;altitude;pressure_sealevel;temperature;humidity
25232;BME280;13176;51.140;6.290;2023-06-10T00:00:07;100640.28;;;25.73;48.50
25232;BME280;13176;51.140;6.290;2023-06-10T00:02:34;100661.63;;;25.86;49.03
25232;BME280;13176;51.140;6.290;2023-06-10T00:05:01;100659.88;;;25.74;49.36
25232;BME280;13176;51.140;6.290;2023-06-10T00:07:28;100641.06;;;25.52;49.59
25232;BME280;13176;51.140;6.290;2023-06-10T00:09:54;100512.38;;;24.77;50.02
25232;BME280;13176;51.140;6.290;2023-06-10T00:12:21;100519.59;;;24.87;49.92
25232;BME280;13176;51.140;6.290;2023-06-10T00:14:48;100624.34;;;25.61;50.18
25232;BME280;13176;51.140;6.290;2023-06-10T00:17:16;100672.38;;;26.08;49.23
25232;BME280;13176;51.140;6.290;2023-06-10T00:19:45;100606.69;;;25.82;48.37
25232;BME280;13176;51.140;6.290;2023-06-10T00:22:13;100649.03;;;26.10;48.21
25232;BME280;13176;51.140;6.290;2023-06-10T00:24:40;100652.66;;;25.98;48.15
25232;BME280;13176;51.140;6.290;2023-06-10T00:27:08;100664.72;;;26.03;47.97
25232;BME280;13176;51.140;6.290;2023-06-10T00:29:34;100548.44;;;25.29;48.40
25232;BME280;13176;51.140;6.290;2023-06-10T00:32:01;100660.47;;;25.77;48.50
25232;BME280;13176;51.140;6.290;2023-06-10T00:34:28;100589.03;;;25.34;49.17
25232;BME280;13176;51.140;6.290;2023-06-10T00:36:54;100632.56;;;25.47;48.77
25232;BME280;13176;51.140;6.290;2023-06-10T00:39:23;100670.81;;;25.71;49.12
25232;BME280;13176;51.140;6.290;2023-06-10T00:41:49;100557.53;;;25.03;49.41
25232;BME280;13176;51.140;6.290;2023-06-10T00:44:16;100574.03;;;24.97;49.48
25232;BME280;13176;51.140;6.290;2023-06-10T00:46:42;100634.50;;;25.45;49.03
25232;BME280;13176;51.140;6.290;2023-06-10T00:49:09;100647.44;;;25.62;49.13
25232;BME280;13176;51.140;6.290;2023-06-10T00:51:36;100654.94;;;25.57;49.55
25232;BME280;13176;51.140;6.290;2023-06-10T00:54:03;100669.78;;;25.61;49.55
25232;BME280;13176;51.140;6.290;2023-06-10T00:56:30;100649.97;;;25.29;49.69
25232;BME280;13176;51.140;6.290;2023-06-10T00:58:58;100643.91;;;25.27;49.82
25232;BME280;13176;51.140;6.290;2023-06-10T01:01:24;100564.97;;;24.64;50.44
25232;BME280;13176;51.140;6.290;2023-06-10T01:03:51;100638.94;;;25.10;50.41
25232;BME280;13176;51.140;6.290;2023-06-10T01:06:30;100646.97;;;25.10;50.55
25232;BME280;13176;51.140;6.290;2023-06-10T01:09:20;100662.22;;;25.21;50.59
25232;BME280;13176;51.140;6.290;2023-06-10T01:12:07;100666.91;;;25.17;50.88
25232;BME280;13176;51.140;6.290;2023-06-10T01:14:36;100653.25;;;25.09;50.59
25232;BME280;13176;51.140;6.290;2023-06-10T01:17:03;100642.00;;;24.93;50.75
25232;BME280;13176;51.140;6.290;2023-06-10T01:19:31;100629.09;;;24.87;50.72
25232;BME280;13176;51.140;6.290;2023-06-10T01:22:00;100580.22;;;24.51;51.14
25232;BME280;13176;51.140;6.290;2023-06-10T01:24:27;100642.00;;;24.93;50.92
25232;BME280;13176;51.140;6.290;2023-06-10T01:26:56;100650.34;;;24.89;51.24
25232;BME280;13176;51.140;6.290;2023-06-10T01:29:46;100645.91;;;24.77;51.04
25232;BME280;13176;51.140;6.290;2023-06-10T01:32:24;100650.38;;;24.76;51.48
25232;BME280;13176;51.140;6.290;2023-06-10T01:34:54;100623.00;;;24.49;51.64
25232;BME280;13176;51.140;6.290;2023-06-10T01:37:24;100583.44;;;24.19;52.04
25232;BME280;13176;51.140;6.290;2023-06-10T01:39:55;100656.97;;;24.47;51.91
25232;BME280;13176;51.140;6.290;2023-06-10T01:42:23;100670.94;;;24.63;52.09
25232;BME280;13176;51.140;6.290;2023-06-10T01:44:49;100522.66;;;23.74;52.25
25232;BME280;13176;51.140;6.290;2023-06-10T01:47:16;100684.19;;;24.52;52.13
25232;BME280;13176;51.140;6.290;2023-06-10T01:49:43;100552.72;;;23.76;52.53
25232;BME280;13176;51.140;6.290;2023-06-10T01:52:09;100544.41;;;23.68;52.28
25232;BME280;13176;51.140;6.290;2023-06-10T01:54:35;100630.50;;;24.20;52.54
25232;BME280;13176;51.140;6.290;2023-06-10T01:57:02;100680.97;;;24.47;52.51
25232;BME280;13176;51.140;6.290;2023-06-10T01:59:29;100678.00;;;24.39;52.47
25232;BME280;13176;51.140;6.290;2023-06-10T02:01:55;100631.13;;;24.11;52.93
25232;BME280;13176;51.140;6.290;2023-06-10T02:04:22;100675.22;;;24.28;52.92
25232;BME280;13176;51.140;6.290;2023-06-10T02:06:48;100658.34;;;24.16;53.04
25232;BME280;13176;51.140;6.290;2023-06-10T02:09:14;100549.19;;;23.50;52.97
25232;BME280;13176;51.140;6.290;2023-06-10T02:11:41;100680.44;;;24.18;53.34
25232;BME280;13176;51.140;6.290;2023-06-10T02:14:07;100599.00;;;23.62;53.41
25232;BME280;13176;51.140;6.290;2023-06-10T02:16:34;100684.41;;;24.12;53.49
25232;BME280;13176;51.140;6.290;2023-06-10T02:19:00;100597.09;;;23.52;53.37
25232;BME280;13176;51.140;6.290;2023-06-10T02:21:27;100572.97;;;23.41;53.75
25232;BME280;13176;51.140;6.290;2023-06-10T02:23:53;100578.09;;;23.44;53.61
25232;BME280;13176;51.140;6.290;2023-06-10T02:26:20;100602.84;;;23.58;53.31
25232;BME280;13176;51.140;6.290;2023-06-10T02:28:47;100665.59;;;23.89;53.49
25232;BME280;13176;51.140;6.290;2023-06-10T02:31:13;100664.66;;;23.90;53.42
25232;BME280;13176;51.140;6.290;2023-06-10T02:33:40;100633.56;;;23.64;53.44
25232;BME280;13176;51.140;6.290;2023-06-10T02:36:08;100673.09;;;23.70;54.05
25232;BME280;13176;51.140;6.290;2023-06-10T02:38:34;100656.81;;;23.62;53.77
25232;BME280;13176;51.140;6.290;2023-06-10T02:41:01;100692.88;;;23.80;54.10
25232;BME280;13176;51.140;6.290;2023-06-10T02:43:27;100616.84;;;23.23;54.13
25232;BME280;13176;51.140;6.290;2023-06-10T02:45:54;100693.69;;;23.68;54.22
25232;BME280;13176;51.140;6.290;2023-06-10T02:48:21;100671.28;;;23.58;53.71
25232;BME280;13176;51.140;6.290;2023-06-10T02:50:47;100680.44;;;23.54;53.87
25232;BME280;13176;51.140;6.290;2023-06-10T02:53:14;100642.66;;;23.35;53.91
25232;BME280;13176;51.140;6.290;2023-06-10T02:55:41;100598.38;;;22.94;54.55
25232;BME280;13176;51.140;6.290;2023-06-10T02:58:07;100623.34;;;23.05;54.58
25232;BME280;13176;51.140;6.290;2023-06-10T03:00:34;100686.66;;;23.28;54.77
25232;BME280;13176;51.140;6.290;2023-06-10T03:03:00;100617.53;;;22.86;54.77
25232;BME280;13176;51.140;6.290;2023-06-10T03:05:29;100683.16;;;23.40;54.47
25232;BME280;13176;51.140;6.290;2023-06-10T03:07:56;100692.06;;;23.53;54.18
25232;BME280;13176;51.140;6.290;2023-06-10T03:10:22;100669.03;;;23.52;53.90
25232;BME280;13176;51.140;6.290;2023-06-10T03:12:49;100676.41;;;23.61;53.42
25232;BME280;13176;51.140;6.290;2023-06-10T03:15:15;100689.63;;;23.62;53.14
25232;BME280;13176;51.140;6.290;2023-06-10T03:17:42;100605.22;;;22.98;53.78
25232;BME280;13176;51.140;6.290;2023-06-10T03:20:09;100673.16;;;23.43;53.44
25232;BME280;13176;51.140;6.290;2023-06-10T03:22:36;100645.84;;;23.27;53.53
25232;BME280;13176;51.140;6.290;2023-06-10T03:25:05;100696.44;;;23.54;53.47
25232;BME280;13176;51.140;6.290;2023-06-10T03:27:32;100684.66;;;23.44;53.63
25232;BME280;13176;51.140;6.290;2023-06-10T03:29:59;100668.97;;;23.27;53.75
25232;BME280;13176;51.140;6.290;2023-06-10T03:32:25;100641.50;;;23.12;53.51
25232;BME280;13176;51.140;6.290;2023-06-10T03:34:52;100679.19;;;23.33;53.82
25232;BME280;13176;51.140;6.290;2023-06-10T03:37:24;100706.13;;;23.55;53.89
25232;BME280;13176;51.140;6.290;2023-06-10T03:39:51;100597.03;;;22.74;53.84
25232;BME280;13176;51.140;6.290;2023-06-10T03:42:17;100706.38;;;23.38;53.86
25232;BME280;13176;51.140;6.290;2023-06-10T03:44:44;100661.78;;;23.15;54.11
25232;BME280;13176;51.140;6.290;2023-06-10T03:47:10;100640.47;;;23.15;53.68
25232;BME280;13176;51.140;6.290;2023-06-10T03:49:38;100703.88;;;23.49;54.03
25232;BME280;13176;51.140;6.290;2023-06-10T03:52:06;100681.91;;;23.45;53.63
25232;BME280;13176;51.140;6.290;2023-06-10T03:54:33;100557.44;;;22.70;53.57
25232;BME280;13176;51.140;6.290;2023-06-10T03:57:01;100617.28;;;23.03;53.54
25232;BME280;13176;51.140;6.290;2023-06-10T03:59:27;100675.53;;;23.48;53.43
25232;BME280;13176;51.140;6.290;2023-06-10T04:01:54;100613.19;;;23.12;53.72
25232;BME280;13176;51.140;6.290;2023-06-10T04:04:21;100684.25;;;23.50;53.60
25232;BME280;13176;51.140;6.290;2023-06-10T04:06:47;100588.63;;;22.94;53.46
25232;BME280;13176;51.140;6.290;2023-06-10T04:09:15;100617.03;;;23.08;53.70
25232;BME280;13176;51.140;6.290;2023-06-10T04:11:42;100627.84;;;23.05;54.13
25232;BME280;13176;51.140;6.290;2023-06-10T04:14:08;100621.63;;;23.04;54.16
25232;BME280;13176;51.140;6.290;2023-06-10T04:16:35;100692.78;;;23.42;54.41
25232;BME280;13176;51.140;6.290;2023-06-10T04:19:01;100719.06;;;23.61;53.79
25232;BME280;13176;51.140;6.290;2023-06-10T04:21:28;100662.44;;;23.31;54.21
25232;BME280;13176;51.140;6.290;2023-06-10T04:23:54;100680.63;;;23.38;54.69
25232;BME280;13176;51.140;6.290;2023-06-10T04:26:21;100719.47;;;23.55;54.90
25232;BME280;13176;51.140;6.290;2023-06-10T04:28:48;100673.03;;;23.32;55.14
25232;BME280;13176;51.140;6.290;2023-06-10T04:31:14;100635.16;;;23.15;54.34
25232;BME280;13176;51.140;6.290;2023-06-10T04:33:41;100689.16;;;23.43;54.73
25232;BME280;13176;51.140;6.290;2023-06-10T04:36:07;100718.66;;;23.67;54.36
25232;BME280;13176;51.140;6.290;2023-06-10T04:38:34;100719.91;;;23.61;54.71
25232;BME280;13176;51.140;6.290;2023-06-10T04:41:00;100725.66;;;23.68;54.59
25232;BME280;13176;51.140;6.290;2023-06-10T04:43:27;100634.75;;;23.21;54.57
25232;BME280;13176;51.140;6.290;2023-06-10T04:45:55;100688.22;;;23.57;54.81
25232;BME280;13176;51.140;6.290;2023-06-10T04:48:21;100684.69;;;23.56;54.90
25232;BME280;13176;51.140;6.290;2023-06-10T04:50:50;100638.59;;;23.29;55.07
25232;BME280;13176;51.140;6.290;2023-06-10T04:53:16;100669.66;;;23.55;55.16
25232;BME280;13176;51.140;6.290;2023-06-10T04:55:43;100679.63;;;23.66;54.84
25232;BME280;13176;51.140;6.290;2023-06-10T04:58:10;100684.72;;;23.69;54.45
25232;BME280;13176;51.140;6.290;2023-06-10T05:00:36;100645.38;;;23.47;54.35
25232;BME280;13176;51.140;6.290;2023-06-10T05:03:03;100727.47;;;23.94;54.52
25232;BME280;13176;51.140;6.290;2023-06-10T05:05:29;100724.06;;;23.92;55.19
25232;BME280;13176;51.140;6.290;2023-06-10T05:07:56;100707.53;;;23.87;55.19
25232;BME280;13176;51.140;6.290;2023-06-10T05:10:23;100698.00;;;23.83;54.99
25232;BME280;13176;51.140;6.290;2023-06-10T05:12:49;100721.72;;;24.00;55.62
25232;BME280;13176;51.140;6.290;2023-06-10T05:15:15;100704.22;;;23.96;55.95
25232;BME280;13176;51.140;6.290;2023-06-10T05:17:42;100601.13;;;23.45;54.67
25232;BME280;13176;51.140;6.290;2023-06-10T05:20:09;100692.69;;;23.95;54.61
25232;BME280;13176;51.140;6.290;2023-06-10T05:22:35;100721.75;;;24.12;54.88
25232;BME280;13176;51.140;6.290;2023-06-10T05:25:02;100740.97;;;24.29;54.89
25232;BME280;13176;51.140;6.290;2023-06-10T05:27:29;100734.34;;;24.23;55.23
25232;BME280;13176;51.140;6.290;2023-06-10T05:29:55;100645.78;;;23.80;55.46
25232;BME280;13176;51.140;6.290;2023-06-10T05:32:22;100641.56;;;23.76;55.88
25232;BME280;13176;51.140;6.290;2023-06-10T05:34:49;100647.47;;;23.81;55.84
25232;BME280;13176;51.140;6.290;2023-06-10T05:37:15;100653.84;;;24.04;55.55
25232;BME280;13176;51.140;6.290;2023-06-10T05:39:42;100726.44;;;24.46;55.61
25232;BME280;13176;51.140;6.290;2023-06-10T05:42:09;100678.44;;;24.21;55.06
25232;BME280;13176;51.140;6.290;2023-06-10T05:44:36;100658.78;;;24.10;55.79
25232;BME280;13176;51.140;6.290;2023-06-10T05:47:03;100711.94;;;24.50;55.22
25232;BME280;13176;51.140;6.290;2023-06-10T05:49:30;100721.34;;;24.55;54.29
25232;BME280;13176;51.140;6.290;2023-06-10T05:51:56;100735.72;;;24.78;53.75
25232;BME280;13176;51.140;6.290;2023-06-10T05:54:25;100718.56;;;24.69;54.16
25232;BME280;13176;51.140;6.290;2023-06-10T05:56:55;100661.44;;;24.34;54.96
25232;BME280;13176;51.140;6.290;2023-06-10T05:59:22;100737.63;;;24.88;55.09
25232;BME280;13176;51.140;6.290;2023-06-10T06:01:49;100631.13;;;24.35;55.26
25232;BME280;13176;51.140;6.290;2023-06-10T06:04:16;100677.97;;;24.64;54.42
25232;BME280;13176;51.140;6.290;2023-06-10T06:06:43;100726.59;;;25.05;53.72
25232;BME280;13176;51.140;6.290;2023-06-10T06:09:09;100728.28;;;25.06;54.21
25232;BME280;13176;51.140;6.290;2023-06-10T06:11:36;100722.72;;;25.09;53.55
25232;BME280;13176;51.140;6.290;2023-06-10T06:14:02;100634.59;;;24.61;53.08
25232;BME280;13176;51.140;6.290;2023-06-10T06:16:29;100735.50;;;25.29;53.02
25232;BME280;13176;51.140;6.290;2023-06-10T06:18:56;100726.75;;;25.27;53.36
25232;BME280;13176;51.140;6.290;2023-06-10T06:21:22;100646.88;;;24.99;52.97
25232;BME280;13176;51.140;6.290;2023-06-10T06:23:49;100659.13;;;25.14;51.58
25232;BME280;13176;51.140;6.290;2023-06-10T06:26:15;100722.53;;;25.59;51.10
25232;BME280;13176;51.140;6.290;2023-06-10T06:28:42;100698.91;;;25.53;51.23
25232;BME280;13176;51.140;6.290;2023-06-10T06:31:08;100728.03;;;25.68;51.06
25232;BME280;13176;51.140;6.290;2023-06-10T06:33:35;100660.22;;;25.35;50.67
25232;BME280;13176;51.140;6.290;2023-06-10T06:36:01;100652.66;;;25.29;51.51
25232;BME280;13176;51.140;6.290;2023-06-10T06:38:28;100670.22;;;25.44;51.44
25232;BME280;13176;51.140;6.290;2023-06-10T06:40:54;100690.06;;;25.52;51.79
25232;BME280;13176;51.140;6.290;2023-06-10T06:43:21;100747.00;;;25.89;51.84
25232;BME280;13176;51.140;6.290;2023-06-10T06:45:47;100765.31;;;26.06;51.02
25232;BME280;13176;51.140;6.290;2023-06-10T06:48:14;100649.06;;;25.41;51.07
25232;BME280;13176;51.140;6.290;2023-06-10T06:50:40;100756.31;;;26.07;51.34
25232;BME280;13176;51.140;6.290;2023-06-10T06:53:08;100694.97;;;25.93;49.15
25232;BME280;13176;51.140;6.290;2023-06-10T06:55:34;100754.41;;;26.20;49.63
25232;BME280;13176;51.140;6.290;2023-06-10T06:58:01;100736.88;;;26.27;48.91
25232;BME280;13176;51.140;6.290;2023-06-10T07:00:30;100711.56;;;26.09;48.45
25232;BME280;13176;51.140;6.290;2023-06-10T07:02:59;100679.88;;;25.92;49.61
25232;BME280;13176;51.140;6.290;2023-06-10T07:05:56;100739.44;;;26.28;48.88
25232;BME280;13176;51.140;6.290;2023-06-10T07:08:24;100703.78;;;26.17;47.70
25232;BME280;13176;51.140;6.290;2023-06-10T07:10:51;100673.44;;;26.05;47.35
25232;BME280;13176;51.140;6.290;2023-06-10T07:13:48;100712.81;;;26.38;46.95
25232;BME280;13176;51.140;6.290;2023-06-10T07:16:46;100783.75;;;26.88;46.62
25232;BME280;13176;51.140;6.290;2023-06-10T07:19:26;100785.41;;;27.00;44.98
25232;BME280;13176;51.140;6.290;2023-06-10T07:21:53;100659.50;;;26.35;44.54
25232;BME280;13176;51.140;6.290;2023-06-10T07:24:20;100723.56;;;26.70;44.56
25232;BME280;13176;51.140;6.290;2023-06-10T07:26:47;100690.72;;;26.58;45.06
25232;BME280;13176;51.140;6.290;2023-06-10T07:29:14;100721.88;;;26.80;44.53
25232;BME280;13176;51.140;6.290;2023-06-10T07:31:43;100721.13;;;26.89;45.76
25232;BME280;13176;51.140;6.290;2023-06-10T07:34:09;100688.25;;;26.76;43.85
25232;BME280;13176;51.140;6.290;2023-06-10T07:36:41;100777.34;;;27.44;41.51
25232;BME280;13176;51.140;6.290;2023-06-10T07:39:08;100661.06;;;26.81;41.19
25232;BME280;13176;51.140;6.290;2023-06-10T07:41:35;100640.03;;;26.76;41.89
25232;BME280;13176;51.140;6.290;2023-06-10T07:44:01;100677.47;;;26.98;41.71
25232;BME280;13176;51.140;6.290;2023-06-10T07:46:28;100679.66;;;27.04;42.17
25232;BME280;13176;51.140;6.290;2023-06-10T07:48:55;100662.41;;;27.08;41.69
25232;BME280;13176;51.140;6.290;2023-06-10T07:51:25;100764.88;;;27.65;41.70
25232;BME280;13176;51.140;6.290;2023-06-10T07:53:52;100742.16;;;27.69;42.15
25232;BME280;13176;51.140;6.290;2023-06-10T07:56:20;100601.13;;;26.93;40.56
25232;BME280;13176;51.140;6.290;2023-06-10T07:58:50;100651.16;;;27.25;41.12
25232;BME280;13176;51.140;6.290;2023-06-10T08:01:16;100653.28;;;27.31;41.74
25232;BME280;13176;51.140;6.290;2023-06-10T08:03:50;100698.56;;;27.67;41.35
25232;BME280;13176;51.140;6.290;2023-06-10T08:06:17;100699.72;;;27.74;40.47
25232;BME280;13176;51.140;6.290;2023-06-10T08:08:44;100700.91;;;27.81;40.10
25232;BME280;13176;51.140;6.290;2023-06-10T08:11:15;100665.59;;;27.65;41.47
25232;BME280;13176;51.140;6.290;2023-06-10T08:13:41;100748.53;;;28.20;40.29
25232;BME280;13176;51.140;6.290;2023-06-10T08:16:08;100598.63;;;27.43;40.57
25232;BME280;13176;51.140;6.290;2023-06-10T08:18:35;100649.19;;;27.79;40.11
25232;BME280;13176;51.140;6.290;2023-06-10T08:21:04;100576.34;;;27.43;39.51
25232;BME280;13176;51.140;6.290;2023-06-10T08:23:36;100674.22;;;28.00;39.63
25232;BME280;13176;51.140;6.290;2023-06-10T08:26:14;100664.09;;;28.13;40.84
25232;BME280;13176;51.140;6.290;2023-06-10T08:28:45;100589.97;;;27.71;41.03
25232;BME280;13176;51.140;6.290;2023-06-10T08:31:19;100619.97;;;28.06;41.26
25232;BME280;13176;51.140;6.290;2023-06-10T08:33:47;100605.56;;;28.07;41.28
25232;BME280;13176;51.140;6.290;2023-06-10T08:36:13;100651.00;;;28.40;40.34
25232;BME280;13176;51.140;6.290;2023-06-10T08:38:40;100661.53;;;28.62;40.07
25232;BME280;13176;51.140;6.290;2023-06-10T08:41:12;100625.53;;;28.44;39.63
25232;BME280;13176;51.140;6.290;2023-06-10T08:44:08;100678.91;;;28.88;39.02
25232;BME280;13176;51.140;6.290;2023-06-10T08:46:41;100654.09;;;28.75;41.38
25232;BME280;13176;51.140;6.290;2023-06-10T08:49:17;100655.44;;;28.90;38.52
25232;BME280;13176;51.140;6.290;2023-06-10T08:51:50;100676.28;;;29.07;39.37
25232;BME280;13176;51.140;6.290;2023-06-10T08:54:21;100756.97;;;29.74;40.77
25232;BME280;13176;51.140;6.290;2023-06-10T08:56:53;100774.81;;;29.75;39.53
25232;BME280;13176;51.140;6.290;2023-06-10T08:59:25;100769.88;;;29.80;39.74
25232;BME280;13176;51.140;6.290;2023-06-10T09:01:54;100758.94;;;29.72;39.49
25232;BME280;13176;51.140;6.290;2023-06-10T09:04:22;100602.81;;;28.87;38.48
25232;BME280;13176;51.140;6.290;2023-06-10T09:06:51;100636.06;;;28.96;39.74
25232;BME280;13176;51.140;6.290;2023-06-10T09:09:17;100701.13;;;29.57;39.26
25232;BME280;13176;51.140;6.290;2023-06-10T09:11:46;100673.66;;;29.63;39.14
25232;BME280;13176;51.140;6.290;2023-06-10T09:14:15;100764.03;;;30.32;38.48
25232;BME280;13176;51.140;6.290;2023-06-10T09:16:43;100708.06;;;29.88;38.75
25232;BME280;13176;51.140;6.290;2023-06-10T09:19:16;100777.22;;;30.35;38.68
25232;BME280;13176;51.140;6.290;2023-06-10T09:21:50;100664.88;;;29.61;37.98
25232;BME280;13176;51.140;6.290;2023-06-10T09:24:22;100771.97;;;30.43;39.12
25232;BME280;13176;51.140;6.290;2023-06-10T09:26:50;100703.16;;;30.03;38.67
25232;BME280;13176;51.140;6.290;2023-06-10T09:29:20;100676.19;;;29.93;37.52
25232;BME280;13176;51.140;6.290;2023-06-10T09:31:46;100621.81;;;29.61;38.26
25232;BME280;13176;51.140;6.290;2023-06-10T09:34:15;100785.25;;;30.73;38.47
25232;BME280;13176;51.140;6.290;2023-06-10T09:36:43;100718.94;;;30.53;37.88
25232;BME280;13176;51.140;6.290;2023-06-10T09:39:19;100773.19;;;31.04;38.28
25232;BME280;13176;51.140;6.290;2023-06-10T09:41:46;100696.97;;;30.75;37.79
25232;BME280;13176;51.140;6.290;2023-06-10T09:44:16;100700.88;;;30.90;36.84
25232;BME280;13176;51.140;6.290;2023-06-10T09:46:47;100713.59;;;31.07;38.29
25232;BME280;13176;51.140;6.290;2023-06-10T09:49:18;100606.25;;;30.56;34.90
25232;BME280;13176;51.140;6.290;2023-06-10T09:51:51;100748.03;;;31.66;35.24
25232;BME280;13176;51.140;6.290;2023-06-10T09:54:31;100637.69;;;30.92;34.88
25232;BME280;13176;51.140;6.290;2023-06-10T09:56:58;100727.16;;;31.59;34.92
25232;BME280;13176;51.140;6.290;2023-06-10T09:59:29;100719.06;;;31.76;34.90
25232;BME280;13176;51.140;6.290;2023-06-10T10:01:58;100588.69;;;30.97;34.42
25232;BME280;13176;51.140;6.290;2023-06-10T10:04:28;100575.13;;;30.89;34.00
25232;BME280;13176;51.140;6.290;2023-06-10T10:06:55;100765.97;;;32.10;34.53
25232;BME280;13176;51.140;6.290;2023-06-10T10:09:22;100633.44;;;31.52;33.96
25232;BME280;13176;51.140;6.290;2023-06-10T10:11:51;100642.63;;;31.76;33.43
25232;BME280;13176;51.140;6.290;2023-06-10T10:14:23;100594.56;;;31.45;34.35
25232;BME280;13176;51.140;6.290;2023-06-10T10:17:00;100636.06;;;31.78;33.63
25232;BME280;13176;51.140;6.290;2023-06-10T10:19:31;100610.34;;;31.74;33.96
25232;BME280;13176;51.140;6.290;2023-06-10T10:22:06;100723.06;;;32.50;34.16
25232;BME280;13176;51.140;6.290;2023-06-10T10:24:50;100723.00;;;32.42;33.06
25232;BME280;13176;51.140;6.290;2023-06-10T10:27:21;100733.59;;;32.61;33.30
25232;BME280;13176;51.140;6.290;2023-06-10T10:29:54;100680.09;;;32.39;33.57
25232;BME280;13176;51.140;6.290;2023-06-10T10:32:38;100698.00;;;32.40;33.02
25232;BME280;13176;51.140;6.290;2023-06-10T10:35:20;100656.03;;;32.28;32.46
25232;BME280;13176;51.140;6.290;2023-06-10T10:37:52;100675.19;;;32.68;32.15
25232;BME280;13176;51.140;6.290;2023-06-10T10:40:25;100582.75;;;32.39;31.97
25232;BME280;13176;51.140;6.290;2023-06-10T10:42:56;100643.97;;;32.81;32.33
25232;BME280;13176;51.140;6.290;2023-06-10T10:45:27;100645.34;;;32.85;31.82
25232;BME280;13176;51.140;6.290;2023-06-10T10:47:55;100586.66;;;32.45;31.84
25232;BME280;13176;51.140;6.290;2023-06-10T10:50:25;100685.66;;;33.12;31.71
25232;BME280;13176;51.140;6.290;2023-06-10T10:53:20;100690.00;;;33.39;32.72
25232;BME280;13176;51.140;6.290;2023-06-10T10:55:58;100632.06;;;33.16;30.83
25232;BME280;13176;51.140;6.290;2023-06-10T10:58:25;100578.88;;;32.75;31.31
25232;BME280;13176;51.140;6.290;2023-06-10T11:00:57;100593.09;;;32.93;30.81
25232;BME280;13176;51.140;6.290;2023-06-10T11:03:32;100732.25;;;33.97;31.92
25232;BME280;13176;51.140;6.290;2023-06-10T11:06:15;100719.19;;;34.08;29.12
25232;BME280;13176;51.140;6.290;2023-06-10T11:11:25;100666.16;;;34.22;31.59
25232;BME280;13176;51.140;6.290;2023-06-10T11:16:28;100710.78;;;35.28;29.04
25232;BME280;13176;51.140;6.290;2023-06-10T11:18:56;100721.47;;;35.52;28.78
25232;BME280;13176;51.140;6.290;2023-06-10T11:21:24;100696.84;;;35.53;27.27
25232;BME280;13176;51.140;6.290;2023-06-10T11:24:00;100709.63;;;35.98;26.28
25232;BME280;13176;51.140;6.290;2023-06-10T11:31:24;100703.94;;;35.85;26.05
25232;BME280;13176;51.140;6.290;2023-06-10T11:34:02;100640.50;;;35.25;26.85
25232;BME280;13176;51.140;6.290;2023-06-10T11:36:38;100688.94;;;35.44;27.26
25232;BME280;13176;51.140;6.290;2023-06-10T11:39:06;100700.19;;;35.33;28.14
25232;BME280;13176;51.140;6.290;2023-06-10T11:41:37;100698.16;;;35.35;28.33
25232;BME280;13176;51.140;6.290;2023-06-10T11:44:16;100620.28;;;34.97;27.90
25232;BME280;13176;51.140;6.290;2023-06-10T11:46:48;100697.38;;;35.49;27.06
25232;BME280;13176;51.140;6.290;2023-06-10T11:49:16;100693.28;;;35.53;26.79
25232;BME280;13176;51.140;6.290;2023-06-10T11:51:43;100650.44;;;35.02;25.75
25232;BME280;13176;51.140;6.290;2023-06-10T11:54:18;100674.88;;;35.10;27.21
25232;BME280;13176;51.140;6.290;2023-06-10T11:56:46;100587.19;;;34.71;27.09
25232;BME280;13176;51.140;6.290;2023-06-10T11:59:13;100531.00;;;34.49;28.00
25232;BME280;13176;51.140;6.290;2023-06-10T12:01:46;100555.97;;;34.75;26.98
25232;BME280;13176;51.140;6.290;2023-06-10T12:04:15;100547.50;;;34.70;25.90
25232;BME280;13176;51.140;6.290;2023-06-10T12:06:49;100607.72;;;34.96;26.19
25232;BME280;13176;51.140;6.290;2023-06-10T12:09:27;100626.38;;;35.29;27.15
25232;BME280;13176;51.140;6.290;2023-06-10T12:11:58;100692.41;;;35.83;26.19
25232;BME280;13176;51.140;6.290;2023-06-10T12:14:53;100681.94;;;35.72;26.50
25232;BME280;13176;51.140;6.290;2023-06-10T12:17:22;100641.09;;;35.35;25.60
25232;BME280;13176;51.140;6.290;2023-06-10T12:19:50;100628.72;;;35.02;26.33
25232;BME280;13176;51.140;6.290;2023-06-10T12:22:17;100589.63;;;34.89;26.52
25232;BME280;13176;51.140;6.290;2023-06-10T12:24:59;100622.03;;;35.43;26.56
25232;BME280;13176;51.140;6.290;2023-06-10T12:27:26;100577.38;;;35.23;25.61
25232;BME280;13176;51.140;6.290;2023-06-10T12:29:54;100563.81;;;35.23;26.41
25232;BME280;13176;51.140;6.290;2023-06-10T12:32:22;100664.63;;;35.73;26.46
25232;BME280;13176;51.140;6.290;2023-06-10T12:35:04;100609.06;;;35.53;25.50
25232;BME280;13176;51.140;6.290;2023-06-10T12:37:32;100614.34;;;35.32;26.08
25232;BME280;13176;51.140;6.290;2023-06-10T12:40:03;100647.75;;;35.55;26.06
25232;BME280;13176;51.140;6.290;2023-06-10T12:42:32;100676.03;;;35.68;27.74
25232;BME280;13176;51.140;6.290;2023-06-10T12:45:04;100593.44;;;35.10;27.55
25232;BME280;13176;51.140;6.290;2023-06-10T12:47:35;100646.72;;;35.64;26.55
25232;BME280;13176;51.140;6.290;2023-06-10T12:50:02;100646.22;;;35.60;27.85
25232;BME280;13176;51.140;6.290;2023-06-10T12:52:29;100646.50;;;35.65;26.27
25232;BME280;13176;51.140;6.290;2023-06-10T12:54:58;100653.22;;;35.77;26.86
25232;BME280;13176;51.140;6.290;2023-06-10T12:57:24;100658.09;;;35.59;26.27
25232;BME280;13176;51.140;6.290;2023-06-10T12:59:51;100635.19;;;35.31;25.88
25232;BME280;13176;51.140;6.290;2023-06-10T13:02:19;100652.22;;;35.25;26.19
25232;BME280;13176;51.140;6.290;2023-06-10T13:04:50;100647.72;;;35.10;26.41
25232;BME280;13176;51.140;6.290;2023-06-10T13:07:17;100660.66;;;35.30;26.36
25232;BME280;13176;51.140;6.290;2023-06-10T13:09:44;100644.25;;;35.24;25.80